createdAt,value
2022-09-26T00:00:37.810Z,32.7
2022-09-26T00:01:54.113Z,31.8
2022-09-26T00:03:10.405Z,33.4
2022-09-26T00:04:26.680Z,32.4
2022-09-26T00:05:42.982Z,30.9
2022-09-26T00:06:59.278Z,29.2
2022-09-26T00:08:15.572Z,32.3
2022-09-26T00:09:31.870Z,29.3
2022-09-26T00:10:47.174Z,32.8
2022-09-26T00:12:03.461Z,30
2022-09-26T00:13:19.762Z,31.9
2022-09-26T00:14:36.049Z,30.8
2022-09-26T00:15:52.333Z,31.5
2022-09-26T00:17:08.638Z,28.8
2022-09-26T00:18:24.939Z,29.5
2022-09-26T00:19:41.218Z,26.3
2022-09-26T00:20:57.515Z,33
2022-09-26T00:22:13.802Z,30.6
2022-09-26T00:23:30.110Z,31.5
2022-09-26T00:24:46.382Z,29.6
2022-09-26T00:26:02.689Z,29
2022-09-26T00:27:17.991Z,34.6
2022-09-26T00:28:34.286Z,27.5
2022-09-26T00:29:50.579Z,29.9
2022-09-26T00:31:06.869Z,27.6
2022-09-26T00:32:23.158Z,30.8
2022-09-26T00:33:39.469Z,29.4
2022-09-26T00:34:55.750Z,30.8
2022-09-26T00:36:12.058Z,32
2022-09-26T00:37:28.330Z,33.2
2022-09-26T00:38:44.630Z,30.9
2022-09-26T00:40:00.924Z,30.8
2022-09-26T00:41:17.209Z,30.9
2022-09-26T00:42:33.502Z,31
2022-09-26T00:43:48.818Z,31.8
2022-09-26T00:45:05.118Z,35.5
2022-09-26T00:46:21.400Z,32.5
2022-09-26T00:47:37.709Z,33.4
2022-09-26T00:48:53.989Z,33.9
2022-09-26T00:50:10.281Z,31.6
2022-09-26T00:51:26.570Z,32.6
2022-09-26T00:52:42.867Z,33.9
2022-09-26T00:53:59.165Z,32.2
2022-09-26T00:55:15.462Z,29.3
2022-09-26T00:56:31.762Z,29.7
2022-09-26T00:57:48.037Z,30.5
2022-09-26T00:59:04.343Z,28.4
2022-09-26T01:00:19.637Z,32.2
2022-09-26T01:01:35.947Z,33.5
2022-09-26T01:02:52.232Z,28.6
2022-09-26T01:04:08.532Z,29.5
2022-09-26T01:05:24.825Z,27.7
2022-09-26T01:06:41.104Z,34
2022-09-26T01:07:57.404Z,29
2022-09-26T01:09:13.698Z,30.2
2022-09-26T01:10:29.998Z,30
2022-09-26T01:11:46.280Z,31.3
2022-09-26T01:13:02.569Z,26.8
2022-09-26T01:14:18.860Z,26.7
2022-09-26T01:15:35.154Z,29
2022-09-26T01:16:50.470Z,26.6
2022-09-26T01:18:06.755Z,30.3
2022-09-26T01:19:23.061Z,28.7
2022-09-26T01:20:39.347Z,21.5
2022-09-26T01:21:55.640Z,23.4
2022-09-26T01:23:11.938Z,21.8
2022-09-26T01:24:28.237Z,23.9
2022-09-26T01:25:44.524Z,23.5
2022-09-26T01:27:00.814Z,24.7
2022-09-26T01:28:17.099Z,22.3
2022-09-26T01:29:33.397Z,22.3
2022-09-26T01:30:49.699Z,19.1
2022-09-26T01:32:05.981Z,17.8
2022-09-26T01:33:21.298Z,17.3
2022-09-26T01:34:37.589Z,12.6
2022-09-26T01:35:53.879Z,13
2022-09-26T01:37:10.000Z,15.2
2022-09-26T01:38:26.478Z,12.2
2022-09-26T01:39:42.747Z,13.7
2022-09-26T01:40:59.051Z,13.5
2022-09-26T01:42:15.332Z,13
2022-09-26T01:43:31.627Z,16.3
2022-09-26T01:44:47.915Z,13.9
2022-09-26T01:46:04.221Z,15.4
2022-09-26T01:47:20.513Z,12.6
2022-09-26T01:48:36.808Z,12.7
2022-09-26T01:49:52.102Z,12.5
2022-09-26T01:51:08.403Z,11.7
2022-09-26T01:52:24.698Z,11.8
2022-09-26T01:53:41.000Z,11.7
2022-09-26T01:54:57.277Z,11.4
2022-09-26T01:56:12.607Z,10.3
2022-09-26T01:57:28.884Z,11.2
2022-09-26T01:58:45.173Z,12.1
2022-09-26T02:00:01.478Z,11.1
2022-09-26T02:01:17.762Z,12.5
2022-09-26T02:02:34.070Z,10.9
2022-09-26T02:03:50.358Z,9.4
2022-09-26T02:05:06.637Z,10.6
2022-09-26T02:06:22.932Z,9.6
2022-09-26T02:07:39.232Z,9.7
2022-09-26T02:08:55.531Z,9.7
2022-09-26T02:10:11.825Z,9.1
2022-09-26T02:11:28.114Z,10.9
2022-09-26T02:12:43.422Z,12.7
2022-09-26T02:13:59.717Z,11.8
2022-09-26T02:15:16.008Z,12.1
2022-09-26T02:16:32.300Z,13.6
2022-09-26T02:17:48.599Z,10.9
2022-09-26T02:19:04.881Z,13.1
2022-09-26T02:20:21.187Z,14.6
2022-09-26T02:21:37.479Z,9.9
2022-09-26T02:22:53.756Z,10.8
2022-09-26T02:24:10.064Z,11.8
2022-09-26T02:25:26.340Z,13.1
2022-09-26T02:26:42.641Z,12.9
2022-09-26T02:27:58.924Z,11.4
2022-09-26T02:29:14.235Z,12.1
2022-09-26T02:30:30.542Z,10.9
2022-09-26T02:31:46.825Z,9.8
2022-09-26T02:33:03.125Z,14.4
2022-09-26T02:34:19.407Z,10.9
2022-09-26T02:35:35.707Z,12
2022-09-26T02:36:51.994Z,11.9
2022-09-26T02:38:08.283Z,12.3
2022-09-26T02:39:24.582Z,11.5
2022-09-26T02:40:40.888Z,14.2
2022-09-26T02:41:57.166Z,10.2
2022-09-26T02:43:13.452Z,13.4
2022-09-26T02:44:29.756Z,10.8
2022-09-26T02:45:45.068Z,12.3
2022-09-26T02:47:01.358Z,14.2
2022-09-26T02:48:17.659Z,13.5
2022-09-26T02:49:33.939Z,12.1
2022-09-26T02:50:50.243Z,14.1
2022-09-26T02:52:06.535Z,18.1
2022-09-26T02:53:22.814Z,14.4
2022-09-26T02:54:39.114Z,17.2
2022-09-26T02:55:55.400Z,16.6
2022-09-26T02:57:11.691Z,16.2
2022-09-26T02:58:27.996Z,21.1
2022-09-26T02:59:44.289Z,19.3
2022-09-26T03:01:00.579Z,17.4
2022-09-26T03:02:15.888Z,20.8
2022-09-26T03:03:32.182Z,16.2
2022-09-26T03:04:48.476Z,21.7
2022-09-26T03:06:04.757Z,20
2022-09-26T03:07:21.057Z,26.4
2022-09-26T03:08:37.349Z,20.5
2022-09-26T03:09:53.648Z,22.3
2022-09-26T03:11:09.947Z,21.8
2022-09-26T03:12:26.224Z,22.5
2022-09-26T03:13:42.516Z,19.9
2022-09-26T03:14:58.813Z,18.7
2022-09-26T03:16:15.110Z,22.2
2022-09-26T03:17:31.407Z,25
2022-09-26T03:18:46.730Z,24
2022-09-26T03:20:03.005Z,23.9
2022-09-26T03:21:19.301Z,26.1
2022-09-26T03:22:35.579Z,22.7
2022-09-26T03:23:51.876Z,23.8
2022-09-26T03:25:08.175Z,24.9
2022-09-26T03:26:24.470Z,23.2
2022-09-26T03:27:40.760Z,27
2022-09-26T03:28:57.045Z,26.7
2022-09-26T03:30:13.337Z,22.5
2022-09-26T03:31:29.649Z,23.7
2022-09-26T03:32:45.923Z,25.6
2022-09-26T03:34:02.232Z,25.9
2022-09-26T03:35:17.529Z,27.2
2022-09-26T03:36:33.831Z,30.1
2022-09-26T03:37:50.139Z,24.1
2022-09-26T03:39:06.416Z,25.6
2022-09-26T03:40:22.698Z,24.2
2022-09-26T03:41:39.004Z,25.8
2022-09-26T03:42:55.295Z,25.1
2022-09-26T03:44:11.578Z,25.3
2022-09-26T03:45:27.896Z,26.7
2022-09-26T03:46:44.175Z,27.1
2022-09-26T03:48:00.460Z,29.2
2022-09-26T03:49:16.768Z,25.7
2022-09-26T03:50:33.049Z,26.8
2022-09-26T03:51:48.355Z,31.6
2022-09-26T03:53:04.646Z,28.6
2022-09-26T03:54:20.952Z,24
2022-09-26T03:55:37.235Z,28.5
2022-09-26T03:56:53.552Z,27.5
2022-09-26T03:58:09.822Z,28.3
2022-09-26T03:59:26.118Z,30.4
2022-09-26T04:00:42.409Z,27.6
2022-09-26T04:01:58.697Z,27.5
2022-09-26T04:03:15.002Z,24.7
2022-09-26T04:04:31.292Z,26.7
2022-09-26T04:05:47.576Z,27.8
2022-09-26T04:07:03.872Z,25.9
2022-09-26T04:08:19.185Z,28
2022-09-26T04:09:35.471Z,27.6
2022-09-26T04:10:51.783Z,26.9
2022-09-26T04:12:08.063Z,27.1
2022-09-26T04:13:24.351Z,29
2022-09-26T04:14:40.656Z,28.6
2022-09-26T04:15:56.944Z,28
2022-09-26T04:17:13.236Z,30.3
2022-09-26T04:18:29.539Z,27.5
2022-09-26T04:19:45.817Z,28.5
2022-09-26T04:21:02.114Z,30
2022-09-26T04:22:18.415Z,31.4
2022-09-26T04:23:34.693Z,28
2022-09-26T04:24:50.020Z,30.8
2022-09-26T04:26:06.294Z,27.8
2022-09-26T04:27:22.601Z,26.6
2022-09-26T04:28:38.885Z,26
2022-09-26T04:29:55.182Z,26.4
2022-09-26T04:31:11.478Z,25.6
2022-09-26T04:32:27.762Z,25.8
2022-09-26T04:33:44.070Z,26.9
2022-09-26T04:35:00.293Z,25.4
2022-09-26T04:36:16.591Z,27.4
2022-09-26T04:37:32.909Z,23.4
2022-09-26T04:38:49.132Z,23.7
2022-09-26T04:40:05.426Z,22.3
2022-09-26T04:41:20.747Z,22.5
2022-09-26T04:42:37.035Z,23.4
2022-09-26T04:43:53.319Z,22.4
2022-09-26T04:45:09.564Z,22.1
2022-09-26T04:46:25.814Z,21.6
2022-09-26T04:47:42.055Z,21.1
2022-09-26T04:48:58.299Z,21.8
2022-09-26T04:50:14.538Z,18.4
2022-09-26T04:51:30.766Z,23.9
2022-09-26T04:52:47.001Z,23.7
2022-09-26T04:54:03.245Z,25.1
2022-09-26T04:55:19.481Z,22.6
2022-09-26T04:56:35.724Z,22.5
2022-09-26T04:57:50.987Z,23.3
2022-09-26T04:59:07.220Z,22.4
2022-09-26T05:00:23.448Z,20.2
2022-09-26T05:01:39.690Z,22.5
2022-09-26T05:02:55.939Z,21.2
2022-09-26T05:04:12.179Z,18.6
2022-09-26T05:05:28.425Z,22.5
2022-09-26T05:06:44.655Z,20.5
2022-09-26T05:08:00.894Z,20.2
2022-09-26T05:09:17.124Z,22.4
2022-09-26T05:10:33.365Z,21.2
2022-09-26T05:11:49.610Z,19.5
2022-09-26T05:13:05.847Z,20.3
2022-09-26T05:14:21.099Z,19.6
2022-09-26T05:15:37.343Z,16.4
2022-09-26T05:16:53.593Z,19.1
2022-09-26T05:18:09.816Z,20.3
2022-09-26T05:19:26.060Z,17.1
2022-09-26T05:20:42.291Z,17.1
2022-09-26T05:21:58.539Z,18.7
2022-09-26T05:23:14.775Z,18
2022-09-26T05:24:31.011Z,19.2
2022-09-26T05:25:47.249Z,19.3
2022-09-26T05:27:03.502Z,17
2022-09-26T05:28:19.729Z,19.1
2022-09-26T05:29:35.974Z,17.6
2022-09-26T05:30:51.224Z,19.9
2022-09-26T05:32:07.459Z,19.6
2022-09-26T05:33:23.713Z,17.2
2022-09-26T05:34:39.952Z,19.8
2022-09-26T05:35:56.192Z,21.7
2022-09-26T05:37:12.431Z,19.1
2022-09-26T05:38:28.662Z,19.8
2022-09-26T05:39:44.911Z,19.2
2022-09-26T05:41:01.148Z,16.4
2022-09-26T05:42:17.384Z,22
2022-09-26T05:43:33.630Z,17.5
2022-09-26T05:44:49.870Z,20.4
2022-09-26T05:46:06.103Z,18.9
2022-09-26T05:47:21.353Z,20.6
2022-09-26T05:48:37.586Z,19.3
2022-09-26T05:49:53.844Z,18.4
2022-09-26T05:51:10.067Z,23.6
2022-09-26T05:52:26.312Z,19.7
2022-09-26T05:53:42.542Z,20.1
2022-09-26T05:54:58.796Z,16.4
2022-09-26T05:56:15.023Z,17.9
2022-09-26T05:57:31.267Z,19.1
2022-09-26T05:58:47.509Z,19.1
2022-09-26T06:00:03.000Z,18.9
2022-09-26T06:01:19.991Z,18.1
2022-09-26T06:02:36.228Z,17.6
2022-09-26T06:03:51.478Z,17.1
2022-09-26T06:05:07.719Z,20.2
2022-09-26T06:06:23.962Z,15.9
2022-09-26T06:07:40.194Z,16.9
2022-09-26T06:08:56.433Z,19.5
2022-09-26T06:10:12.665Z,18.6
2022-09-26T06:11:27.937Z,17.6
2022-09-26T06:12:44.175Z,17.7
2022-09-26T06:14:00.405Z,15.9
2022-09-26T06:15:16.654Z,17.5
2022-09-26T06:16:32.901Z,18.8
2022-09-26T06:17:49.126Z,14.8
2022-09-26T06:19:05.383Z,17.2
2022-09-26T06:20:21.608Z,14.9
2022-09-26T06:21:37.842Z,13.3
2022-09-26T06:22:54.079Z,13.1
2022-09-26T06:24:10.330Z,12
2022-09-26T06:25:26.572Z,13
2022-09-26T06:26:42.801Z,13.1
2022-09-26T06:27:58.061Z,12.3
2022-09-26T06:29:14.302Z,13.1
2022-09-26T06:30:30.542Z,15.6
2022-09-26T06:31:46.772Z,12.7
2022-09-26T06:33:03.017Z,17.4
2022-09-26T06:34:19.251Z,14.1
2022-09-26T06:35:35.494Z,13.1
2022-09-26T06:36:51.729Z,15.9
2022-09-26T06:38:07.975Z,11.7
2022-09-26T06:39:24.225Z,14.2
2022-09-26T06:40:40.448Z,14.9
2022-09-26T06:41:56.692Z,15.6
2022-09-26T06:43:12.938Z,14.6
2022-09-26T06:44:28.185Z,11.6
2022-09-26T06:45:44.423Z,21.5
2022-09-26T06:47:00.676Z,14
2022-09-26T06:48:16.912Z,14.8
2022-09-26T06:49:33.144Z,12
2022-09-26T06:50:49.395Z,14.7
2022-09-26T06:52:05.615Z,13.4
2022-09-26T06:53:21.873Z,21.9
2022-09-26T06:54:38.105Z,14.4
2022-09-26T06:55:54.336Z,14.2
2022-09-26T06:57:10.587Z,13.3
2022-09-26T06:58:26.828Z,13.7
2022-09-26T06:59:43.052Z,18.2
2022-09-26T07:00:58.310Z,10.1
2022-09-26T07:02:14.551Z,9.8
2022-09-26T07:03:30.789Z,14.6
2022-09-26T07:04:47.022Z,8.7
2022-09-26T07:06:03.280Z,12.8
2022-09-26T07:07:19.516Z,13.5
2022-09-26T07:08:35.737Z,10.6
2022-09-26T07:09:51.984Z,9
2022-09-26T07:11:08.219Z,10.6
2022-09-26T07:12:24.465Z,12.5
2022-09-26T07:13:40.697Z,10.9
2022-09-26T07:14:56.937Z,9.7
2022-09-26T07:16:13.185Z,9.2
2022-09-26T07:17:28.445Z,10
2022-09-26T07:18:44.670Z,9.3
2022-09-26T07:20:00.914Z,10.8
2022-09-26T07:21:17.160Z,11.9
2022-09-26T07:22:33.394Z,12.4
2022-09-26T07:23:49.630Z,12.8
2022-09-26T07:25:05.879Z,12.2
2022-09-26T07:26:22.103Z,12.7
2022-09-26T07:27:38.357Z,10.5
2022-09-26T07:28:54.583Z,11.8
2022-09-26T07:30:10.000Z,8.8
2022-09-26T07:31:27.067Z,8.3
2022-09-26T07:32:43.300Z,10.5
2022-09-26T07:33:58.569Z,8.3
2022-09-26T07:35:14.804Z,10
2022-09-26T07:36:31.036Z,10.1
2022-09-26T07:37:47.273Z,6.9
2022-09-26T07:39:03.513Z,7.6
2022-09-26T07:40:19.758Z,8.7
2022-09-26T07:41:35.990Z,7.9
2022-09-26T07:42:52.232Z,7.6
2022-09-26T07:44:08.464Z,8
2022-09-26T07:45:24.705Z,10.4
2022-09-26T07:46:40.956Z,9.8
2022-09-26T07:47:57.188Z,7.8
2022-09-26T07:49:13.425Z,11.4
2022-09-26T07:50:28.682Z,7
2022-09-26T07:51:44.910Z,8.1
2022-09-26T07:53:01.149Z,9.1
2022-09-26T07:54:17.400Z,8.6
2022-09-26T07:55:33.627Z,7
2022-09-26T07:56:49.873Z,9.9
2022-09-26T07:58:06.125Z,6.3
2022-09-26T07:59:22.360Z,7.6
2022-09-26T08:00:38.584Z,9.9
2022-09-26T08:01:54.825Z,10.3
2022-09-26T08:03:11.076Z,9.4
2022-09-26T08:04:27.306Z,8.1
2022-09-26T08:05:43.544Z,9.1
2022-09-26T08:06:58.804Z,7
2022-09-26T08:08:15.032Z,8.4
2022-09-26T08:09:31.283Z,10.7
2022-09-26T08:10:47.514Z,8.8
2022-09-26T08:12:03.752Z,6.1
2022-09-26T08:13:19.987Z,8.5
2022-09-26T08:14:36.241Z,5.7
2022-09-26T08:15:52.470Z,8.6
2022-09-26T08:17:08.708Z,7.3
2022-09-26T08:18:24.950Z,5.6
2022-09-26T08:19:41.178Z,7.6
2022-09-26T08:20:57.419Z,8.1
2022-09-26T08:22:13.670Z,6.7
2022-09-26T08:23:28.923Z,7.6
2022-09-26T08:24:45.155Z,11.6
2022-09-26T08:26:01.394Z,8.1
2022-09-26T08:27:17.631Z,8.9
2022-09-26T08:28:33.864Z,5.1
2022-09-26T08:29:50.107Z,7.8
2022-09-26T08:31:06.342Z,7
2022-09-26T08:32:22.595Z,7.7
2022-09-26T08:33:38.823Z,8.4
2022-09-26T08:34:55.061Z,7.2
2022-09-26T08:36:11.304Z,7.3
2022-09-26T08:37:27.537Z,7.8
2022-09-26T08:38:43.775Z,8.3
2022-09-26T08:39:59.038Z,5.5
2022-09-26T08:41:15.277Z,7.1
2022-09-26T08:42:31.514Z,8.3
2022-09-26T08:43:47.749Z,5.8
2022-09-26T08:45:03.987Z,6.4
2022-09-26T08:46:20.233Z,8
2022-09-26T08:47:36.469Z,6.7
2022-09-26T08:48:52.701Z,8.3
2022-09-26T08:50:08.936Z,7
2022-09-26T08:51:25.182Z,6
2022-09-26T08:52:41.432Z,8.9
2022-09-26T08:53:57.666Z,7.5
2022-09-26T08:55:13.895Z,7.4
2022-09-26T08:56:29.147Z,6.1
2022-09-26T08:57:45.394Z,6
2022-09-26T08:59:01.632Z,5.5
2022-09-26T09:00:17.866Z,8.3
2022-09-26T09:01:34.115Z,5.6
2022-09-26T09:02:50.346Z,5.9
2022-09-26T09:04:06.583Z,4.8
2022-09-26T09:05:22.834Z,6.4
2022-09-26T09:06:39.055Z,5.3
2022-09-26T09:07:55.306Z,5
2022-09-26T09:09:11.545Z,5.5
2022-09-26T09:10:27.774Z,5.3
2022-09-26T09:11:44.013Z,6.2
2022-09-26T09:12:59.277Z,6
2022-09-26T09:14:15.499Z,7.3
2022-09-26T09:15:31.740Z,5.8
2022-09-26T09:16:47.975Z,6.7
2022-09-26T09:18:04.229Z,4.9
2022-09-26T09:19:20.463Z,5.2
2022-09-26T09:20:36.705Z,4.6
2022-09-26T09:21:52.949Z,5.6
2022-09-26T09:23:09.181Z,5.3
2022-09-26T09:24:25.419Z,4.8
2022-09-26T09:25:41.655Z,5.9
2022-09-26T09:26:57.884Z,6.2
2022-09-26T09:28:14.130Z,6.5
2022-09-26T09:29:29.376Z,3.6
2022-09-26T09:30:45.627Z,3
2022-09-26T09:32:01.854Z,4.6
2022-09-26T09:33:18.106Z,4.6
2022-09-26T09:34:34.329Z,4.7
2022-09-26T09:35:50.569Z,6.4
2022-09-26T09:37:06.806Z,4.7
2022-09-26T09:38:23.060Z,4.4
2022-09-26T09:39:39.302Z,4.9
2022-09-26T09:40:55.524Z,5.7
2022-09-26T09:42:11.775Z,8
2022-09-26T09:43:28.018Z,5.9
2022-09-26T09:44:44.252Z,5.3
2022-09-26T09:45:59.507Z,6.3
2022-09-26T09:47:15.730Z,5.5
2022-09-26T09:48:31.986Z,3.3
2022-09-26T09:49:48.220Z,3.5
2022-09-26T09:51:04.460Z,4
2022-09-26T09:52:20.687Z,6.3
2022-09-26T09:53:36.927Z,5.8
2022-09-26T09:54:53.167Z,3.8
2022-09-26T09:56:09.404Z,4.4
2022-09-26T09:57:25.641Z,4.9
2022-09-26T09:58:41.887Z,4.1
2022-09-26T09:59:58.129Z,3.1
2022-09-26T10:01:14.369Z,4
2022-09-26T10:02:29.615Z,6
2022-09-26T10:03:45.860Z,4.3
2022-09-26T10:05:02.099Z,5.7
2022-09-26T10:06:18.342Z,6.1
2022-09-26T10:07:34.574Z,5.1
2022-09-26T10:08:50.822Z,4.7
2022-09-26T10:10:07.051Z,9.2
2022-09-26T10:11:23.286Z,4.8
2022-09-26T10:12:39.528Z,5.8
2022-09-26T10:13:55.782Z,4
2022-09-26T10:15:12.018Z,7.1
2022-09-26T10:16:28.254Z,5.2
2022-09-26T10:17:44.490Z,6.2
2022-09-26T10:18:59.741Z,5.1
2022-09-26T10:20:15.990Z,4
2022-09-26T10:21:32.221Z,7.2
2022-09-26T10:22:48.473Z,3.8
2022-09-26T10:24:04.710Z,4.5
2022-09-26T10:25:20.943Z,4.1
2022-09-26T10:26:36.209Z,4.1
2022-09-26T10:27:52.446Z,4
2022-09-26T10:29:08.686Z,4.7
2022-09-26T10:30:24.924Z,7.9
2022-09-26T10:31:41.000Z,3.9
2022-09-26T10:32:57.398Z,4.3
2022-09-26T10:34:13.650Z,6.2
2022-09-26T10:35:29.885Z,4.9
2022-09-26T10:36:46.121Z,5.2
2022-09-26T10:38:02.368Z,4.6
2022-09-26T10:39:18.604Z,3.6
2022-09-26T10:40:34.853Z,6.5
2022-09-26T10:41:51.092Z,3.3
2022-09-26T10:43:06.362Z,4.2
2022-09-26T10:44:22.585Z,4.5
2022-09-26T10:45:38.824Z,3.9
2022-09-26T10:46:55.074Z,5.4
2022-09-26T10:48:11.302Z,6.1
2022-09-26T10:49:27.553Z,4.8
2022-09-26T10:50:43.784Z,7.2
2022-09-26T10:52:00.022Z,5.4
2022-09-26T10:53:16.262Z,5
2022-09-26T10:54:32.498Z,4.8
2022-09-26T10:55:48.752Z,5.6
2022-09-26T10:57:04.996Z,4.4
2022-09-26T10:58:21.239Z,4.3
2022-09-26T10:59:36.476Z,4.4
2022-09-26T11:00:52.733Z,4.1
2022-09-26T11:02:08.965Z,3.2
2022-09-26T11:03:25.207Z,4.4
2022-09-26T11:04:41.437Z,5.3
2022-09-26T11:05:57.675Z,4.3
2022-09-26T11:07:13.932Z,6.5
2022-09-26T11:08:30.173Z,4.3
2022-09-26T11:09:46.408Z,4.8
2022-09-26T11:11:02.636Z,5
2022-09-26T11:12:18.897Z,5.1
2022-09-26T11:13:35.124Z,5.1
2022-09-26T11:14:51.357Z,7
2022-09-26T11:16:06.623Z,3.1
2022-09-26T11:17:22.862Z,9.7
2022-09-26T11:18:39.100Z,4.5
2022-09-26T11:19:55.337Z,4.2
2022-09-26T11:21:11.579Z,5.2
2022-09-26T11:22:27.822Z,3.8
2022-09-26T11:23:44.073Z,4.9
2022-09-26T11:25:00.298Z,5.9
2022-09-26T11:26:16.539Z,5.5
2022-09-26T11:27:32.780Z,4.9
2022-09-26T11:28:49.023Z,6.2
2022-09-26T11:30:05.261Z,4.6
2022-09-26T11:31:21.506Z,5.4
2022-09-26T11:32:36.743Z,4.1
2022-09-26T11:33:52.986Z,5.3
2022-09-26T11:35:09.229Z,5.6
2022-09-26T11:36:25.461Z,3.5
2022-09-26T11:37:41.707Z,4.6
2022-09-26T11:38:57.944Z,4.9
2022-09-26T11:40:14.181Z,3.5
2022-09-26T11:41:30.432Z,5.9
2022-09-26T11:42:46.660Z,4.2
2022-09-26T11:44:02.913Z,3.9
2022-09-26T11:45:19.135Z,4.4
2022-09-26T11:46:35.384Z,5.1
2022-09-26T11:47:51.614Z,4.9
2022-09-26T11:49:06.886Z,4.5
2022-09-26T11:50:23.115Z,6.6
2022-09-26T11:51:39.348Z,3.2
2022-09-26T11:52:55.584Z,3.6
2022-09-26T11:54:11.828Z,3.6
2022-09-26T11:55:28.066Z,4.8
2022-09-26T11:56:44.309Z,4.3
2022-09-26T11:58:00.545Z,4.1
2022-09-26T11:59:16.790Z,4.2
2022-09-26T12:00:33.022Z,5.1
2022-09-26T12:01:49.271Z,3.8
2022-09-26T12:03:05.502Z,3.9
2022-09-26T12:04:21.741Z,4.9
2022-09-26T12:05:36.992Z,5.3
2022-09-26T12:06:53.251Z,6.8
2022-09-26T12:08:09.475Z,6
2022-09-26T12:09:25.726Z,4.8
2022-09-26T12:10:41.959Z,2.6
2022-09-26T12:11:58.190Z,4.8
2022-09-26T12:13:14.424Z,2
2022-09-26T12:14:30.673Z,5.3
2022-09-26T12:15:46.912Z,4.5
2022-09-26T12:17:03.142Z,3.4
2022-09-26T12:18:19.381Z,2.8
2022-09-26T12:19:35.628Z,3.8
2022-09-26T12:20:51.858Z,3.3
2022-09-26T12:22:07.128Z,3.6
2022-09-26T12:23:23.355Z,3.6
2022-09-26T12:24:39.598Z,3.6
2022-09-26T12:25:55.847Z,5.5
2022-09-26T12:27:12.083Z,3.2
2022-09-26T12:28:28.314Z,5
2022-09-26T12:29:44.584Z,3.3
2022-09-26T12:31:00.808Z,3.7
2022-09-26T12:32:17.052Z,6.2
2022-09-26T12:33:33.288Z,4.4
2022-09-26T12:34:49.540Z,4.1
2022-09-26T12:36:05.770Z,3.2
2022-09-26T12:37:22.011Z,18.8
2022-09-26T12:38:37.274Z,4.8
2022-09-26T12:39:53.518Z,3.5
2022-09-26T12:41:09.747Z,5.7
2022-09-26T12:42:25.989Z,3.2
2022-09-26T12:43:42.231Z,2.9
2022-09-26T12:44:58.482Z,3.7
2022-09-26T12:46:14.706Z,4.6
2022-09-26T12:47:30.947Z,6.1
2022-09-26T12:48:47.192Z,5.1
2022-09-26T12:50:03.432Z,4.5
2022-09-26T12:51:19.677Z,4
2022-09-26T12:52:35.899Z,5.8
2022-09-26T12:53:52.150Z,4.9
2022-09-26T12:55:07.404Z,3.1
2022-09-26T12:56:23.638Z,4.8
2022-09-26T12:57:39.882Z,7.5
2022-09-26T12:58:56.127Z,7.5
2022-09-26T13:00:12.369Z,4.3
2022-09-26T13:01:28.609Z,5.3
2022-09-26T13:02:44.833Z,4.7
2022-09-26T13:04:01.093Z,3.4
2022-09-26T13:05:17.329Z,3.8
2022-09-26T13:06:33.572Z,4.1
2022-09-26T13:07:49.802Z,3.2
2022-09-26T13:09:06.053Z,4.2
2022-09-26T13:10:22.277Z,4.1
2022-09-26T13:11:37.558Z,6.5
2022-09-26T13:12:53.787Z,5.5
2022-09-26T13:14:10.032Z,4.5
2022-09-26T13:15:26.261Z,4.8
2022-09-26T13:16:42.499Z,4.4
2022-09-26T13:17:58.757Z,2.9
2022-09-26T13:19:14.990Z,3.7
2022-09-26T13:20:31.233Z,5.1
2022-09-26T13:21:47.477Z,3.8
2022-09-26T13:23:03.704Z,3.9
2022-09-26T13:24:19.953Z,3.6
2022-09-26T13:25:36.188Z,4.2
2022-09-26T13:26:52.438Z,3.7
2022-09-26T13:28:08.667Z,3.7
2022-09-26T13:29:23.935Z,2.9
2022-09-26T13:30:40.155Z,3.2
2022-09-26T13:31:56.395Z,5.1
2022-09-26T13:33:12.638Z,3.4
2022-09-26T13:34:28.875Z,3.2
2022-09-26T13:35:45.123Z,4.5
2022-09-26T13:37:01.368Z,5.1
2022-09-26T13:38:17.599Z,4.2
2022-09-26T13:39:33.852Z,4.6
2022-09-26T13:40:50.094Z,4.9
2022-09-26T13:42:06.328Z,3.6
2022-09-26T13:43:22.573Z,3.9
2022-09-26T13:44:38.810Z,3
2022-09-26T13:45:54.072Z,5.5
2022-09-26T13:47:10.312Z,3.3
2022-09-26T13:48:26.561Z,2.6
2022-09-26T13:49:42.794Z,3.1
2022-09-26T13:50:59.047Z,4.5
2022-09-26T13:52:15.287Z,3
2022-09-26T13:53:31.518Z,4.1
2022-09-26T13:54:47.754Z,4.1
2022-09-26T13:56:04.003Z,3.9
2022-09-26T13:57:20.235Z,4.1
2022-09-26T13:58:36.490Z,2.8
2022-09-26T13:59:52.715Z,5
2022-09-26T14:01:08.958Z,4.3
2022-09-26T14:02:24.227Z,3.1
2022-09-26T14:03:40.455Z,3
2022-09-26T14:04:56.711Z,3.1
2022-09-26T14:06:12.930Z,2.3
2022-09-26T14:07:29.169Z,4
2022-09-26T14:08:45.438Z,3.3
2022-09-26T14:10:01.650Z,3
2022-09-26T14:11:17.898Z,3.1
2022-09-26T14:12:34.132Z,4.1
2022-09-26T14:13:50.375Z,3.1
2022-09-26T14:15:06.624Z,6.3
2022-09-26T14:16:22.877Z,3.8
2022-09-26T14:17:39.109Z,5.1
2022-09-26T14:18:54.348Z,5.1
2022-09-26T14:20:10.600Z,3.3
2022-09-26T14:21:26.838Z,3.5
2022-09-26T14:22:43.065Z,3.2
2022-09-26T14:23:59.311Z,4.7
2022-09-26T14:25:15.564Z,4
2022-09-26T14:26:31.800Z,7.6
2022-09-26T14:27:48.033Z,4.5
2022-09-26T14:29:04.278Z,4.4
2022-09-26T14:30:20.511Z,4.5
2022-09-26T14:31:36.765Z,3.8
2022-09-26T14:32:52.995Z,6.8
2022-09-26T14:34:09.232Z,5.7
2022-09-26T14:35:24.488Z,4.4
2022-09-26T14:36:40.746Z,3.1
2022-09-26T14:37:56.973Z,3.1
2022-09-26T14:39:13.230Z,2.5
2022-09-26T14:40:29.465Z,4
2022-09-26T14:41:45.685Z,4.3
2022-09-26T14:43:00.967Z,2.7
2022-09-26T14:44:17.186Z,5.7
2022-09-26T14:45:33.443Z,7.6
2022-09-26T14:46:49.673Z,3.7
2022-09-26T14:48:05.908Z,3.5
2022-09-26T14:49:22.146Z,4.1
2022-09-26T14:50:38.389Z,3.8
2022-09-26T14:51:54.628Z,3.6
2022-09-26T14:53:10.878Z,4.3
2022-09-26T14:54:27.119Z,4.5
2022-09-26T14:55:43.361Z,4.1
2022-09-26T14:56:59.596Z,5.5
2022-09-26T14:58:15.826Z,3.4
2022-09-26T14:59:31.095Z,3.6
2022-09-26T15:00:47.320Z,5.2
2022-09-26T15:02:03.573Z,2.8
2022-09-26T15:03:19.800Z,3
2022-09-26T15:04:36.050Z,7
2022-09-26T15:05:52.293Z,4.9
2022-09-26T15:07:08.529Z,3.4
2022-09-26T15:08:24.765Z,4.9
2022-09-26T15:09:40.997Z,3.5
2022-09-26T15:10:57.256Z,5.5
2022-09-26T15:12:13.469Z,4.3
2022-09-26T15:13:29.707Z,3
2022-09-26T15:14:45.966Z,3.6
2022-09-26T15:16:01.218Z,3.7
2022-09-26T15:17:17.440Z,2.2
2022-09-26T15:18:33.691Z,3.4
2022-09-26T15:19:49.953Z,5.2
2022-09-26T15:21:06.170Z,5.4
2022-09-26T15:22:22.426Z,3.8
2022-09-26T15:23:38.667Z,4.7
2022-09-26T15:24:54.917Z,4.6
2022-09-26T15:26:11.138Z,3.6
2022-09-26T15:27:27.370Z,3.3
2022-09-26T15:28:43.621Z,3.2
2022-09-26T15:29:59.846Z,3.9
2022-09-26T15:31:16.086Z,2.7
2022-09-26T15:32:31.345Z,3.4
2022-09-26T15:33:47.609Z,3.7
2022-09-26T15:35:03.835Z,3.4
2022-09-26T15:36:20.061Z,4.1
2022-09-26T15:37:36.303Z,2
2022-09-26T15:38:52.542Z,2.1
2022-09-26T15:40:08.792Z,2.6
2022-09-26T15:41:25.022Z,2.7
2022-09-26T15:42:41.271Z,4.2
2022-09-26T15:43:57.506Z,3.8
2022-09-26T15:45:13.733Z,4.9
2022-09-26T15:46:29.988Z,4.2
2022-09-26T15:47:46.223Z,2.5
2022-09-26T15:49:01.476Z,6.2
2022-09-26T15:50:17.708Z,2.2
2022-09-26T15:51:33.962Z,2.1
2022-09-26T15:52:50.208Z,3.1
2022-09-26T15:54:06.419Z,3
2022-09-26T15:55:22.680Z,4.4
2022-09-26T15:56:38.912Z,3.3
2022-09-26T15:57:55.155Z,4.2
2022-09-26T15:59:11.396Z,5
2022-09-26T16:00:27.626Z,4.1
2022-09-26T16:01:43.857Z,3.9
2022-09-26T16:03:00.112Z,4.4
2022-09-26T16:04:16.342Z,4.3
2022-09-26T16:05:31.604Z,4.1
2022-09-26T16:06:47.844Z,2.4
2022-09-26T16:08:04.069Z,1.6
2022-09-26T16:09:20.307Z,2.5
2022-09-26T16:10:36.554Z,2.8
2022-09-26T16:11:52.803Z,2.3
2022-09-26T16:13:09.034Z,3.1
2022-09-26T16:14:25.265Z,3.4
2022-09-26T16:15:41.496Z,2.3
2022-09-26T16:16:57.756Z,7.2
2022-09-26T16:18:13.977Z,4.3
2022-09-26T16:19:30.217Z,19.5
2022-09-26T16:20:46.454Z,35.7
2022-09-26T16:22:01.727Z,4.2
2022-09-26T16:23:17.960Z,4.1
2022-09-26T16:24:34.202Z,6.5
2022-09-26T16:25:50.439Z,4.6
2022-09-26T16:27:06.669Z,3.2
2022-09-26T16:28:22.916Z,3.6
2022-09-26T16:29:39.143Z,5.1
2022-09-26T16:30:55.394Z,2.3
2022-09-26T16:32:11.626Z,3.9
2022-09-26T16:33:27.854Z,3
2022-09-26T16:34:44.112Z,3.9
2022-09-26T16:36:00.339Z,3.8
2022-09-26T16:37:16.589Z,2.4
2022-09-26T16:38:31.839Z,3.6
2022-09-26T16:39:48.062Z,2.9
2022-09-26T16:41:04.305Z,2.6
2022-09-26T16:42:20.539Z,3.3
2022-09-26T16:43:36.789Z,2.9
2022-09-26T16:44:53.033Z,2.1
2022-09-26T16:46:09.257Z,2.8
2022-09-26T16:47:25.510Z,4.6
2022-09-26T16:48:41.747Z,4.9
2022-09-26T16:49:57.989Z,4.3
2022-09-26T16:51:14.245Z,2.6
2022-09-26T16:52:30.469Z,3.2
2022-09-26T16:53:46.690Z,3.7
2022-09-26T16:55:01.951Z,3
2022-09-26T16:56:18.209Z,4.2
2022-09-26T16:57:34.422Z,3.8
2022-09-26T16:58:50.683Z,3.1
2022-09-26T17:00:06.905Z,3.6
2022-09-26T17:01:23.164Z,3.9
2022-09-26T17:02:39.372Z,3.6
2022-09-26T17:03:55.631Z,3
2022-09-26T17:05:11.864Z,3.6
2022-09-26T17:06:28.099Z,3.9
2022-09-26T17:07:44.333Z,2.7
2022-09-26T17:09:00.596Z,4.8
2022-09-26T17:10:16.823Z,3.6
2022-09-26T17:11:32.058Z,3.4
2022-09-26T17:12:48.319Z,4
2022-09-26T17:14:04.555Z,4.3
2022-09-26T17:15:20.785Z,3.4
2022-09-26T17:16:37.027Z,3.4
2022-09-26T17:17:53.268Z,3.4
2022-09-26T17:19:09.498Z,4.1
2022-09-26T17:20:25.726Z,6.9